Time;durP1;ratioP1;P1;durP2;ratioP2;P2;SDS_P1;SDS_P2;PMS_P1;PMS_P2;Temp;Humidity;BMP_temperature;BMP_pressure;BME280_temperature;BME280_humidity;BME280_pressure;Samples;Min_cycle;Max_cycle;Signal;HPM_P1;HPM_P2
2021/12/04 00:04:42;;;;;;;;;;;4.40;99.90;;;;;;5038231;28;19944;-74
2021/12/04 00:07:12;;;;;;;;;;;4.40;99.90;;;;;;5024089;28;19909;-71
2021/12/04 00:09:39;;;;;;;;;;;4.50;99.90;;;;;;5040736;28;19909;-73
2021/12/04 00:12:07;;;;;;;;;;;4.50;99.90;;;;;;5040769;28;19910;-72
2021/12/04 00:14:36;;;;;;;;;;;4.50;99.90;;;;;;5040749;28;19909;-70
2021/12/04 00:17:03;;;;;;;;;;;4.50;99.90;;;;;;5020998;28;19910;-72
2021/12/04 00:19:31;;;;;;;;;;;4.50;99.90;;;;;;5020975;28;19933;-70
2021/12/04 00:22:00;;;;;;;;;;;4.50;99.90;;;;;;5020929;28;19917;-69
2021/12/04 00:24:27;;;;;;;;;;;4.50;99.90;;;;;;5025757;28;19964;-70
2021/12/04 00:26:55;;;;;;;;;;;4.50;99.90;;;;;;5040626;28;19933;-69
2021/12/04 00:29:22;;;;;;;;;;;4.60;99.90;;;;;;5040555;28;19921;-69
2021/12/04 00:31:50;;;;;;;;;;;4.60;99.90;;;;;;5040347;28;19910;-73
2021/12/04 00:49:27;;;;;;;;;;;4.50;99.90;;;;;;5040299;28;19916;-70
2021/12/04 00:51:54;;;;;;;;;;;4.50;99.90;;;;;;5040118;28;19941;-70
2021/12/04 00:54:22;;;;;;;;;;;4.60;99.90;;;;;;5020632;28;19924;-71
2021/12/04 00:56:48;;;;;;;;;;;4.60;99.90;;;;;;5020409;28;19933;-70
2021/12/04 00:59:15;;;;;;;;;;;4.50;99.90;;;;;;5020277;28;19940;-72
2021/12/04 02:27:13;;;;;;;;;;;4.80;99.90;;;;;;5056661;23;19917;-73
2021/12/04 02:29:46;;;;;;;;;;;4.80;99.90;;;;;;5023004;28;19941;-79
2021/12/04 02:32:13;;;;;;;;;;;4.80;99.90;;;;;;5006351;28;19921;-73
2021/12/04 02:34:41;;;;;;;;;;;4.80;99.90;;;;;;5006190;28;19972;-70
2021/12/04 02:37:08;;;;;;;;;;;4.80;99.90;;;;;;5022691;28;19910;-71
2021/12/04 02:39:37;;;;;;;;;;;4.80;99.90;;;;;;5022509;28;19910;-78
2021/12/04 02:42:05;;;;;;;;;;;4.80;99.90;;;;;;5020164;28;19977;-74
2021/12/04 02:46:59;;;;;;;;;;;4.80;99.90;;;;;;5442081;23;19991;-72
2021/12/04 02:49:26;;;;;;;;;;;4.70;99.90;;;;;;5002676;28;19917;-72
2021/12/04 02:51:52;;;;;;;;;;;4.80;99.90;;;;;;5003183;28;19917;-72
2021/12/04 02:54:19;;;;;;;;;;;4.80;99.90;;;;;;5002959;28;19922;-75
2021/12/04 02:56:47;;;;;;;;;;;4.80;99.90;;;;;;5002921;28;19917;-76
2021/12/04 03:08:21;;;;;;;;;;;4.90;99.90;;;;;;5001868;28;19929;-81
2021/12/04 03:10:49;;;;;;;;;;;4.90;99.90;;;;;;5001924;28;19949;-76
2021/12/04 03:13:17;;;;;;;;;;;4.90;99.90;;;;;;5001823;28;19957;-72
2021/12/04 03:15:47;;;;;;;;;;;4.80;99.90;;;;;;5001321;28;19910;-80
2021/12/04 03:18:13;;;;;;;;;;;4.90;99.90;;;;;;4994361;28;19961;-80
2021/12/04 03:20:44;;;;;;;;;;;4.90;99.90;;;;;;4983156;28;19953;-81
2021/12/04 03:23:18;;;;;;;;;;;4.90;99.90;;;;;;4976450;28;19934;-80
2021/12/04 03:25:48;;;;;;;;;;;5.00;99.90;;;;;;4987793;28;20410;-81
2021/12/04 03:28:18;;;;;;;;;;;5.00;99.90;;;;;;4995401;28;19954;-82
2021/12/04 03:30:48;;;;;;;;;;;4.90;99.90;;;;;;4993091;28;19930;-83
2021/12/04 03:41:28;;;;;;;;;;;5.00;99.90;;;;;;4973192;28;19933;-81
2021/12/04 03:43:56;;;;;;;;;;;5.00;99.90;;;;;;4983459;28;19961;-82
2021/12/04 03:46:24;;;;;;;;;;;5.00;99.90;;;;;;4986685;28;20013;-81
2021/12/04 03:48:51;;;;;;;;;;;5.00;99.90;;;;;;4977126;28;19973;-84
2021/12/04 03:51:18;;;;;;;;;;;5.00;99.90;;;;;;4970538;28;19974;-83
2021/12/04 03:53:45;;;;;;;;;;;5.00;99.90;;;;;;4981100;28;20088;-80
2021/12/04 03:56:13;;;;;;;;;;;5.00;99.90;;;;;;4970729;28;19926;-79
2021/12/04 03:58:40;;;;;;;;;;;5.00;99.90;;;;;;4972938;28;20295;-84
2021/12/04 04:01:09;;;;;;;;;;;5.00;99.90;;;;;;4979721;28;19926;-81
2021/12/04 04:03:36;;;;;;;;;;;5.00;99.90;;;;;;4982920;28;19933;-80
2021/12/04 04:06:03;;;;;;;;;;;5.10;99.90;;;;;;4981489;28;19926;-80
2021/12/04 04:08:30;;;;;;;;;;;5.00;99.90;;;;;;4978665;28;20395;-80
2021/12/04 04:10:58;;;;;;;;;;;5.10;99.90;;;;;;4978349;28;19972;-82
2021/12/04 04:13:25;;;;;;;;;;;5.10;99.90;;;;;;4976546;28;19926;-81
2021/12/04 04:15:51;;;;;;;;;;;5.10;99.90;;;;;;4971525;28;19933;-82
2021/12/04 04:18:20;;;;;;;;;;;5.00;99.90;;;;;;4973732;28;19937;-82
2021/12/04 04:20:47;;;;;;;;;;;5.00;99.90;;;;;;4984965;28;19962;-82
2021/12/04 04:23:14;;;;;;;;;;;5.10;99.90;;;;;;4986497;28;19982;-80
2021/12/04 04:25:40;;;;;;;;;;;5.10;99.90;;;;;;4985809;28;19984;-80
2021/12/04 04:28:07;;;;;;;;;;;5.10;99.90;;;;;;4989412;28;19927;-81
2021/12/04 04:30:34;;;;;;;;;;;5.20;99.90;;;;;;4999578;28;19917;-80
2021/12/04 04:33:02;;;;;;;;;;;5.10;99.90;;;;;;4985895;28;19930;-80
2021/12/04 04:35:32;;;;;;;;;;;5.10;99.90;;;;;;5023188;23;19926;-81
2021/12/04 04:38:05;;;;;;;;;;;5.10;99.90;;;;;;4992507;28;19969;-80
2021/12/04 04:59:56;;;;;;;;;;;5.10;99.90;;;;;;4981284;28;19929;-82
2021/12/04 05:02:37;;;;;;;;;;;5.10;99.90;;;;;;4985788;28;19926;-80
2021/12/04 05:11:05;;;;;;;;;;;5.20;99.90;;;;;;5003528;23;19926;-81
2021/12/04 05:13:31;;;;;;;;;;;5.10;99.90;;;;;;4973598;28;19989;-83
2021/12/04 05:15:59;;;;;;;;;;;5.10;99.90;;;;;;4980307;28;19981;-80
2021/12/04 05:18:35;;;;;;;;;;;5.10;99.90;;;;;;4984534;28;20454;-81
2021/12/04 05:21:06;;;;;;;;;;;5.00;99.90;;;;;;4987582;28;19927;-81
2021/12/04 05:23:35;;;;;;;;;;;5.00;99.90;;;;;;4992287;28;19922;-81
2021/12/04 05:26:02;;;;;;;;;;;5.10;99.90;;;;;;4992066;28;19930;-85
2021/12/04 05:28:29;;;;;;;;;;;5.10;99.90;;;;;;4988986;28;19926;-82
2021/12/04 05:30:56;;;;;;;;;;;5.00;99.90;;;;;;4976523;28;19926;-82
2021/12/04 05:33:23;;;;;;;;;;;5.10;99.90;;;;;;4997260;28;19982;-82
2021/12/04 05:35:49;;;;;;;;;;;5.10;99.90;;;;;;4974973;28;19978;-83
2021/12/04 05:38:16;;;;;;;;;;;5.10;99.90;;;;;;4989388;28;19982;-82
2021/12/04 05:40:47;;;;;;;;;;;5.10;99.90;;;;;;4974610;28;19950;-80
2021/12/04 05:43:14;;;;;;;;;;;5.10;99.90;;;;;;4983554;28;19930;-80
2021/12/04 05:45:44;;;;;;;;;;;5.10;99.90;;;;;;4993347;28;19933;-75
2021/12/04 05:48:14;;;;;;;;;;;5.10;99.90;;;;;;4979778;28;19938;-80
2021/12/04 05:53:23;;;;;;;;;;;5.10;99.90;;;;;;4973357;28;19957;-80
2021/12/04 05:55:53;;;;;;;;;;;5.10;99.90;;;;;;4961279;28;20355;-80
2021/12/04 05:58:21;;;;;;;;;;;5.10;99.90;;;;;;4978118;28;19977;-79
2021/12/04 06:00:48;;;;;;;;;;;5.10;99.90;;;;;;4983826;28;19932;-79
2021/12/04 06:03:14;;;;;;;;;;;5.10;99.90;;;;;;4989118;28;19927;-81
2021/12/04 06:08:26;;;;;;;;;;;5.10;99.90;;;;;;4989216;28;19932;-80
2021/12/04 06:13:52;;;;;;;;;;;5.10;99.90;;;;;;4973807;28;20313;-80
2021/12/04 06:16:18;;;;;;;;;;;5.10;99.90;;;;;;4980998;28;19934;-79
2021/12/04 06:18:51;;;;;;;;;;;5.10;99.90;;;;;;4978344;28;19969;-79
2021/12/04 06:24:04;;;;;;;;;;;5.10;99.90;;;;;;4977005;28;19929;-79
2021/12/04 06:26:32;;;;;;;;;;;5.10;99.90;;;;;;4980479;28;19933;-79
2021/12/04 06:28:58;;;;;;;;;;;5.10;99.90;;;;;;4972919;28;20380;-79
2021/12/04 06:31:25;;;;;;;;;;;5.10;99.90;;;;;;4974134;28;19926;-81
2021/12/04 06:33:52;;;;;;;;;;;5.10;99.90;;;;;;4969231;28;19961;-79
2021/12/04 06:36:21;;;;;;;;;;;5.10;99.90;;;;;;4974075;28;19931;-78
2021/12/04 06:38:48;;;;;;;;;;;5.10;99.90;;;;;;4972014;28;19935;-79
2021/12/04 06:41:15;;;;;;;;;;;5.10;99.90;;;;;;5048728;23;19950;-82
2021/12/04 06:43:47;;;;;;;;;;;5.10;99.90;;;;;;4987168;28;19933;-80
2021/12/04 06:46:14;;;;;;;;;;;5.10;99.90;;;;;;4998058;23;19932;-80
2021/12/04 06:48:43;;;;;;;;;;;5.10;99.90;;;;;;4988045;28;19953;-80
2021/12/04 06:51:23;;;;;;;;;;;5.10;99.90;;;;;;4984219;28;19930;-79
2021/12/04 06:53:55;;;;;;;;;;;5.10;99.90;;;;;;4976836;28;19931;-79
2021/12/04 06:56:23;;;;;;;;;;;5.10;99.90;;;;;;4979933;28;19977;-80
2021/12/04 06:58:52;;;;;;;;;;;5.10;99.90;;;;;;4962023;28;20311;-79
2021/12/04 07:01:19;;;;;;;;;;;5.10;99.90;;;;;;4973405;28;19954;-80
2021/12/04 07:03:49;;;;;;;;;;;5.10;99.90;;;;;;4974033;28;19926;-80
2021/12/04 07:06:18;;;;;;;;;;;5.10;99.90;;;;;;4981077;28;19934;-80
2021/12/04 07:08:45;;;;;;;;;;;5.10;99.90;;;;;;4979162;28;20655;-81
2021/12/04 07:11:12;;;;;;;;;;;5.20;99.90;;;;;;4979446;28;19926;-81
2021/12/04 07:13:38;;;;;;;;;;;5.20;99.90;;;;;;4979499;28;19966;-82
2021/12/04 07:16:08;;;;;;;;;;;5.20;99.90;;;;;;4981233;28;19953;-79
2021/12/04 07:18:35;;;;;;;;;;;5.10;99.90;;;;;;4962442;28;19980;-80
2021/12/04 07:21:03;;;;;;;;;;;5.10;99.90;;;;;;4979599;28;19968;-80
2021/12/04 07:23:29;;;;;;;;;;;5.20;99.90;;;;;;4979658;28;20400;-80
2021/12/04 07:25:56;;;;;;;;;;;5.10;99.90;;;;;;4979789;28;20391;-80
2021/12/04 07:28:23;;;;;;;;;;;5.10;99.90;;;;;;4976026;28;19936;-79
2021/12/04 07:30:50;;;;;;;;;;;5.10;99.90;;;;;;4978028;28;19939;-80
2021/12/04 07:33:19;;;;;;;;;;;5.10;99.90;;;;;;4976653;28;19941;-79
2021/12/04 07:35:46;;;;;;;;;;;5.20;99.90;;;;;;4981238;28;20217;-80
2021/12/04 07:38:14;;;;;;;;;;;5.20;99.90;;;;;;4976081;28;19942;-80
2021/12/04 07:40:40;;;;;;;;;;;5.20;99.90;;;;;;4977218;28;19926;-79
2021/12/04 07:43:07;;;;;;;;;;;5.20;99.90;;;;;;4982255;28;20074;-80
2021/12/04 07:45:34;;;;;;;;;;;5.20;99.90;;;;;;4980399;28;19986;-79
2021/12/04 07:48:00;;;;;;;;;;;5.20;99.90;;;;;;4970783;28;19993;-79
2021/12/04 07:50:29;;;;;;;;;;;5.20;99.90;;;;;;4966781;28;20021;-79
2021/12/04 07:52:57;;;;;;;;;;;5.20;99.90;;;;;;4973859;28;19934;-80
2021/12/04 07:55:24;;;;;;;;;;;5.20;99.90;;;;;;4975662;28;19954;-80
2021/12/04 07:57:51;;;;;;;;;;;5.30;99.90;;;;;;4977978;28;19932;-80
2021/12/04 08:00:19;;;;;;;;;;;5.30;99.90;;;;;;4977577;28;19990;-81
2021/12/04 08:02:47;;;;;;;;;;;5.30;99.90;;;;;;4981575;28;19926;-80
2021/12/04 08:05:16;;;;;;;;;;;5.30;99.90;;;;;;4980657;28;19934;-81
2021/12/04 08:07:44;;;;;;;;;;;5.30;99.90;;;;;;4983540;28;19926;-81
2021/12/04 08:10:12;;;;;;;;;;;5.40;99.90;;;;;;4972315;28;19986;-80
2021/12/04 08:12:39;;;;;;;;;;;5.40;99.90;;;;;;4968214;28;19926;-80
2021/12/04 08:15:06;;;;;;;;;;;5.40;99.90;;;;;;4968419;28;19933;-77
2021/12/04 08:17:34;;;;;;;;;;;5.40;99.90;;;;;;4984356;28;19968;-81
2021/12/04 08:20:00;;;;;;;;;;;5.40;99.90;;;;;;4983459;28;19926;-78
2021/12/04 08:22:27;;;;;;;;;;;5.40;99.90;;;;;;4972111;28;19995;-79
2021/12/04 08:24:55;;;;;;;;;;;5.50;99.90;;;;;;4979726;28;19926;-80
2021/12/04 08:27:22;;;;;;;;;;;5.50;99.90;;;;;;4989580;28;19969;-76
2021/12/04 08:29:49;;;;;;;;;;;5.60;99.90;;;;;;4988692;28;19966;-80
2021/12/04 08:32:15;;;;;;;;;;;5.70;99.90;;;;;;4988928;28;19926;-80
2021/12/04 08:34:42;;;;;;;;;;;5.80;99.90;;;;;;4992107;28;19957;-79
2021/12/04 08:37:09;;;;;;;;;;;5.80;99.90;;;;;;4991179;28;19977;-80
2021/12/04 08:39:35;;;;;;;;;;;5.80;99.90;;;;;;4984723;28;19965;-80
2021/12/04 08:42:04;;;;;;;;;;;5.80;99.90;;;;;;4991187;28;19926;-81
2021/12/04 08:44:31;;;;;;;;;;;5.90;99.90;;;;;;4988548;28;19965;-79
2021/12/04 08:46:57;;;;;;;;;;;5.90;99.90;;;;;;4984559;28;19962;-78
2021/12/04 08:49:24;;;;;;;;;;;5.90;99.90;;;;;;4978815;28;19917;-81
2021/12/04 08:51:51;;;;;;;;;;;5.90;99.90;;;;;;4975164;28;19930;-79
2021/12/04 08:54:18;;;;;;;;;;;5.80;99.90;;;;;;4976842;28;21917;-80
2021/12/04 08:56:44;;;;;;;;;;;5.80;99.90;;;;;;4978488;28;19918;-80
2021/12/04 08:59:12;;;;;;;;;;;5.80;99.90;;;;;;4976793;28;19934;-80
2021/12/04 09:01:43;;;;;;;;;;;5.70;99.90;;;;;;4981049;28;20521;-80
2021/12/04 09:04:11;;;;;;;;;;;5.70;99.90;;;;;;4989888;28;19987;-80
2021/12/04 09:06:39;;;;;;;;;;;5.60;99.90;;;;;;4982674;28;19955;-80
2021/12/04 09:09:06;;;;;;;;;;;5.60;99.90;;;;;;4988966;28;19926;-81
2021/12/04 09:11:34;;;;;;;;;;;5.60;99.90;;;;;;4979954;28;19961;-82
2021/12/04 09:14:01;;;;;;;;;;;5.60;99.90;;;;;;4973639;28;19965;-80
2021/12/04 09:16:29;;;;;;;;;;;5.60;99.90;;;;;;4973930;28;19981;-79
2021/12/04 09:21:37;;;;;;;;;;;5.60;99.90;;;;;;5081690;23;19921;-80
2021/12/04 09:24:08;;;;;;;;;;;5.70;99.90;;;;;;4949920;28;19930;-78
2021/12/04 09:29:41;;;;;;;;;;;5.60;99.90;;;;;;4945147;28;19933;-78
2021/12/04 10:00:08;;;;;;;;;;;6.00;99.90;;;;;;4954060;28;19951;-79
2021/12/04 10:02:55;;;;;;;;;;;6.00;99.90;;;;;;4960472;28;19942;-78
2021/12/04 10:14:12;;;;;;;;;;;6.00;99.90;;;;;;4971169;28;19951;-75
2021/12/04 10:22:21;;;;;;;;;;;6.10;99.90;;;;;;4962254;28;20017;-81
2021/12/04 10:25:15;;;;;;;;;;;6.00;99.90;;;;;;4952988;28;19927;-79
2021/12/04 10:34:01;;;;;;;;;;;6.20;99.90;;;;;;4954628;28;19922;-79
2021/12/04 10:36:29;;;;;;;;;;;6.30;99.90;;;;;;4970754;28;19927;-77
2021/12/04 10:38:57;;;;;;;;;;;6.20;99.90;;;;;;4974385;28;19926;-82
2021/12/04 10:41:29;;;;;;;;;;;6.10;99.90;;;;;;4956862;28;19927;-78
2021/12/04 10:43:56;;;;;;;;;;;6.00;99.90;;;;;;4968899;28;19990;-78
2021/12/04 10:46:23;;;;;;;;;;;6.00;99.90;;;;;;4956602;29;20010;-79
2021/12/04 10:48:55;;;;;;;;;;;5.90;99.90;;;;;;4957863;28;19982;-79
2021/12/04 10:51:28;;;;;;;;;;;5.80;99.90;;;;;;4969164;28;19933;-82
2021/12/04 10:56:49;;;;;;;;;;;5.80;99.90;;;;;;5014575;28;19925;-80
2021/12/04 10:59:29;;;;;;;;;;;5.70;99.90;;;;;;4986531;28;19926;-80
2021/12/04 11:02:08;;;;;;;;;;;5.70;99.90;;;;;;4979614;28;19938;-78
2021/12/04 11:04:40;;;;;;;;;;;5.70;99.90;;;;;;4965858;28;19933;-80
2021/12/04 11:18:58;;;;;;;;;;;5.70;99.90;;;;;;4983170;28;19918;-81
2021/12/04 11:24:51;;;;;;;;;;;5.60;99.90;;;;;;4965349;28;19945;-79
2021/12/04 11:27:51;;;;;;;;;;;5.70;99.90;;;;;;4989828;28;19914;-76
2021/12/04 11:36:15;;;;;;;;;;;5.70;99.90;;;;;;4988526;28;19917;-71
2021/12/04 11:38:47;;;;;;;;;;;5.70;99.90;;;;;;4982448;28;19934;-73
2021/12/04 11:41:21;;;;;;;;;;;5.80;99.90;;;;;;4968995;28;19917;-71
2021/12/04 11:43:59;;;;;;;;;;;5.80;99.90;;;;;;4985399;28;19945;-74
2021/12/04 11:49:10;;;;;;;;;;;5.80;99.90;;;;;;5215665;23;19911;-80
2021/12/04 11:51:44;;;;;;;;;;;5.80;99.90;;;;;;4994989;28;19910;-77
2021/12/04 11:54:12;;;;;;;;;;;5.80;99.90;;;;;;4997881;28;20021;-80
2021/12/04 11:56:39;;;;;;;;;;;5.90;99.90;;;;;;4992065;28;19926;-80
2021/12/04 11:59:06;;;;;;;;;;;5.90;99.90;;;;;;4965833;28;19965;-78
2021/12/04 12:01:34;;;;;;;;;;;5.90;99.90;;;;;;4972543;28;19926;-78
2021/12/04 12:04:02;;;;;;;;;;;5.90;99.90;;;;;;4966430;28;19941;-79
2021/12/04 12:06:31;;;;;;;;;;;5.90;99.90;;;;;;4959466;28;19934;-77
2021/12/04 12:09:04;;;;;;;;;;;6.00;99.90;;;;;;4961711;28;19932;-77
2021/12/04 12:11:30;;;;;;;;;;;6.00;99.90;;;;;;4966836;28;19961;-79
2021/12/04 12:13:58;;;;;;;;;;;6.00;99.90;;;;;;4964549;28;19934;-79
2021/12/04 12:16:26;;;;;;;;;;;6.00;99.90;;;;;;4970312;28;19926;-79
2021/12/04 12:18:55;;;;;;;;;;;6.00;99.90;;;;;;4979269;23;19910;-78
2021/12/04 12:21:26;;;;;;;;;;;6.00;99.90;;;;;;4952808;28;20021;-79
2021/12/04 12:27:15;;;;;;;;;;;6.10;99.90;;;;;;4886006;29;20082;-80
2021/12/04 12:38:12;;;;;;;;;;;6.10;99.90;;;;;;4942759;29;20070;-80
2021/12/04 12:40:41;;;;;;;;;;;6.10;99.90;;;;;;4944565;29;20318;-79
2021/12/04 12:43:12;;;;;;;;;;;6.10;99.90;;;;;;4941028;29;20018;-80
2021/12/04 12:45:39;;;;;;;;;;;6.10;99.90;;;;;;4935162;29;20131;-78
2021/12/04 12:48:07;;;;;;;;;;;6.10;99.90;;;;;;4939915;29;19986;-80
2021/12/04 12:50:37;;;;;;;;;;;6.10;99.90;;;;;;4947879;29;19984;-80
2021/12/04 12:53:06;;;;;;;;;;;6.10;99.90;;;;;;4944579;29;19926;-80
2021/12/04 12:55:35;;;;;;;;;;;6.20;99.90;;;;;;4942567;29;19927;-80
2021/12/04 12:58:17;;;;;;;;;;;6.20;99.90;;;;;;4935957;29;20058;-79
2021/12/04 13:11:52;;;;;;;;;;;6.20;99.90;;;;;;5083603;23;20466;-78
2021/12/04 13:14:21;;;;;;;;;;;6.20;99.90;;;;;;4956612;28;20029;-78
2021/12/04 13:16:49;;;;;;;;;;;6.20;99.90;;;;;;4957999;28;19966;-79
2021/12/04 13:19:23;;;;;;;;;;;6.20;99.90;;;;;;4967487;28;19993;-80
2021/12/04 13:21:50;;;;;;;;;;;6.20;99.90;;;;;;4955142;28;19934;-79
2021/12/04 13:24:18;;;;;;;;;;;6.30;99.90;;;;;;4955113;28;20017;-77
2021/12/04 13:26:46;;;;;;;;;;;6.30;99.90;;;;;;4953505;28;20025;-79
2021/12/04 13:29:15;;;;;;;;;;;6.30;99.90;;;;;;4962994;28;19927;-77
2021/12/04 13:31:44;;;;;;;;;;;6.30;99.90;;;;;;4958391;28;19966;-78
2021/12/04 13:34:13;;;;;;;;;;;6.30;99.90;;;;;;4958773;28;19926;-79
2021/12/04 13:36:40;;;;;;;;;;;6.30;99.90;;;;;;4960283;28;19934;-79
2021/12/04 13:39:09;;;;;;;;;;;6.30;99.90;;;;;;4956857;28;20311;-78
2021/12/04 13:41:36;;;;;;;;;;;6.40;99.90;;;;;;4962094;28;20018;-79
2021/12/04 13:44:05;;;;;;;;;;;6.40;99.90;;;;;;4961143;28;19926;-80
2021/12/04 13:46:38;;;;;;;;;;;6.50;99.90;;;;;;4964433;28;19927;-79
2021/12/04 13:49:06;;;;;;;;;;;6.50;99.90;;;;;;4966264;28;19972;-80
2021/12/04 13:51:33;;;;;;;;;;;6.60;99.90;;;;;;4980643;28;19962;-76
2021/12/04 13:54:10;;;;;;;;;;;6.50;99.90;;;;;;4979792;28;19942;-78
2021/12/04 13:59:14;;;;;;;;;;;6.50;99.90;;;;;;5392584;23;19972;-84
2021/12/04 14:06:49;;;;;;;;;;;6.60;99.90;;;;;;5178676;23;19910;-79
2021/12/04 14:11:42;;;;;;;;;;;6.50;99.90;;;;;;5766520;23;19937;-79
2021/12/04 14:14:12;;;;;;;;;;;6.50;99.90;;;;;;4974981;28;19911;-81
2021/12/04 14:16:39;;;;;;;;;;;6.50;99.90;;;;;;4975308;28;19910;-78
2021/12/04 14:19:13;;;;;;;;;;;6.50;99.90;;;;;;4983740;28;19977;-81
2021/12/04 14:21:42;;;;;;;;;;;6.50;99.90;;;;;;4977236;28;19994;-81
2021/12/04 14:24:11;;;;;;;;;;;6.50;99.90;;;;;;4981432;28;19966;-81
2021/12/04 14:26:38;;;;;;;;;;;6.50;99.90;;;;;;4978921;28;19978;-81
2021/12/04 14:29:13;;;;;;;;;;;6.50;99.90;;;;;;4963854;28;19926;-84
2021/12/04 14:31:40;;;;;;;;;;;6.50;99.90;;;;;;4975758;28;19910;-74
2021/12/04 14:34:12;;;;;;;;;;;6.50;99.90;;;;;;4983465;28;19934;-71
2021/12/04 14:36:39;;;;;;;;;;;6.60;99.90;;;;;;4982923;28;19911;-82
2021/12/04 14:39:19;;;;;;;;;;;6.60;99.90;;;;;;4982941;28;19914;-78
2021/12/04 14:41:47;;;;;;;;;;;6.50;99.90;;;;;;4976862;28;19917;-84
2021/12/04 14:44:19;;;;;;;;;;;6.50;99.90;;;;;;4982717;28;19938;-81
2021/12/04 14:46:46;;;;;;;;;;;6.50;99.90;;;;;;4978159;28;19931;-77
2021/12/04 14:49:13;;;;;;;;;;;6.50;99.90;;;;;;4978430;28;19910;-80
2021/12/04 14:51:41;;;;;;;;;;;6.40;99.90;;;;;;4980024;28;19930;-80
2021/12/04 14:54:08;;;;;;;;;;;6.50;99.90;;;;;;4981508;28;19930;-80
2021/12/04 14:56:34;;;;;;;;;;;6.40;99.90;;;;;;5012192;23;19926;-83
2021/12/04 14:59:13;;;;;;;;;;;6.40;99.90;;;;;;4973446;28;19934;-81
2021/12/04 15:01:40;;;;;;;;;;;6.30;99.90;;;;;;4981111;28;19917;-82
2021/12/04 15:04:07;;;;;;;;;;;6.30;99.90;;;;;;4980781;28;19914;-81
2021/12/04 15:06:36;;;;;;;;;;;6.30;99.90;;;;;;4976656;28;19934;-81
2021/12/04 15:09:07;;;;;;;;;;;6.20;99.90;;;;;;4977201;28;19934;-80
2021/12/04 15:11:35;;;;;;;;;;;6.20;99.90;;;;;;4963538;28;19915;-80
2021/12/04 15:16:59;;;;;;;;;;;6.10;99.90;;;;;;4970580;28;19934;-82
2021/12/04 15:19:37;;;;;;;;;;;6.00;99.90;;;;;;5003995;23;19937;-78
2021/12/04 15:22:16;;;;;;;;;;;6.00;99.90;;;;;;5380685;23;19917;-80
2021/12/04 15:24:44;;;;;;;;;;;5.90;99.90;;;;;;4993598;28;19930;-80
2021/12/04 15:27:12;;;;;;;;;;;5.90;99.90;;;;;;4976586;28;19934;-80
2021/12/04 15:29:40;;;;;;;;;;;5.80;99.90;;;;;;4976326;28;19936;-79
2021/12/04 15:32:09;;;;;;;;;;;5.80;99.90;;;;;;4981800;28;20119;-80
2021/12/04 15:34:51;;;;;;;;;;;5.70;99.90;;;;;;4980881;28;19922;-80
2021/12/04 15:37:26;;;;;;;;;;;5.60;99.90;;;;;;5016983;23;19933;-81
2021/12/04 15:39:53;;;;;;;;;;;5.60;99.90;;;;;;5021061;28;19934;-81
2021/12/04 15:42:29;;;;;;;;;;;5.60;99.90;;;;;;5006260;28;19969;-81
2021/12/04 15:47:36;;;;;;;;;;;5.50;99.90;;;;;;5361236;23;19933;-77
2021/12/04 15:50:40;;;;;;;;;;;5.40;99.90;;;;;;5020750;28;19940;-81
2021/12/04 15:55:44;;;;;;;;;;;5.50;99.90;;;;;;5102849;23;19929;-79
2021/12/04 15:58:12;;;;;;;;;;;5.60;99.90;;;;;;5015380;28;19909;-78
2021/12/04 16:01:11;;;;;;;;;;;5.60;99.90;;;;;;5137358;23;19934;-82
2021/12/04 16:03:43;;;;;;;;;;;5.60;99.90;;;;;;4938965;28;19941;-81
2021/12/04 16:06:12;;;;;;;;;;;5.60;99.90;;;;;;4972179;28;19938;-80
2021/12/04 16:08:40;;;;;;;;;;;5.50;99.90;;;;;;4961271;28;19934;-80
2021/12/04 16:11:16;;;;;;;;;;;5.50;99.90;;;;;;4962263;29;20380;-80
2021/12/04 16:13:48;;;;;;;;;;;5.50;99.90;;;;;;4967029;28;19958;-80
2021/12/04 16:16:19;;;;;;;;;;;5.40;99.90;;;;;;4968539;28;19911;-80
2021/12/04 16:18:49;;;;;;;;;;;5.30;99.90;;;;;;4963885;28;19926;-81
2021/12/04 16:21:18;;;;;;;;;;;5.30;99.90;;;;;;4964467;28;19926;-80
2021/12/04 16:23:45;;;;;;;;;;;5.40;99.90;;;;;;4968129;28;20466;-81
2021/12/04 16:26:16;;;;;;;;;;;5.40;99.90;;;;;;4971364;29;19926;-80
2021/12/04 16:29:03;;;;;;;;;;;5.40;99.90;;;;;;4973851;28;19954;-78
2021/12/04 16:31:42;;;;;;;;;;;5.50;99.90;;;;;;4974787;29;19911;-82
2021/12/04 16:37:04;;;;;;;;;;;5.40;99.90;;;;;;4974465;28;20001;-81
2021/12/04 16:39:31;;;;;;;;;;;5.40;99.90;;;;;;4975922;29;19922;-80
2021/12/04 16:41:58;;;;;;;;;;;5.30;99.90;;;;;;4975096;28;20034;-80
2021/12/04 16:44:27;;;;;;;;;;;5.30;99.90;;;;;;4973788;29;19926;-81
2021/12/04 16:46:54;;;;;;;;;;;5.30;99.90;;;;;;4974669;29;19934;-81
2021/12/04 16:49:22;;;;;;;;;;;5.30;99.90;;;;;;4974721;29;19927;-81
2021/12/04 16:55:04;;;;;;;;;;;5.30;99.90;;;;;;4975337;29;19933;-80
2021/12/04 16:57:48;;;;;;;;;;;5.30;99.90;;;;;;4938991;29;19933;-80
2021/12/04 17:00:15;;;;;;;;;;;5.30;99.90;;;;;;4963504;29;19927;-80
2021/12/04 17:02:44;;;;;;;;;;;5.30;99.90;;;;;;4956568;29;19930;-80
2021/12/04 17:05:13;;;;;;;;;;;5.40;99.90;;;;;;4961076;29;19982;-81
2021/12/04 17:07:41;;;;;;;;;;;5.40;99.90;;;;;;4961272;29;19927;-81
2021/12/04 17:10:09;;;;;;;;;;;5.50;99.90;;;;;;4974161;29;19926;-80
2021/12/04 17:12:37;;;;;;;;;;;5.60;99.90;;;;;;4975317;29;19978;-80
2021/12/04 17:15:06;;;;;;;;;;;5.60;99.90;;;;;;4964570;29;19910;-80
2021/12/04 17:17:35;;;;;;;;;;;5.70;99.90;;;;;;4955402;29;19950;-80
2021/12/04 17:20:03;;;;;;;;;;;5.70;99.90;;;;;;4955539;29;19934;-80
2021/12/04 17:22:31;;;;;;;;;;;5.70;99.90;;;;;;4954557;29;19982;-81
2021/12/04 17:24:58;;;;;;;;;;;5.70;99.90;;;;;;4967158;29;19957;-80
2021/12/04 17:27:25;;;;;;;;;;;5.60;99.90;;;;;;4975278;28;19962;-81
2021/12/04 17:29:53;;;;;;;;;;;5.50;99.90;;;;;;4972159;29;19926;-80
2021/12/04 17:32:22;;;;;;;;;;;5.40;99.90;;;;;;4971607;28;19926;-80
2021/12/04 17:34:50;;;;;;;;;;;5.30;99.90;;;;;;4957998;29;19927;-81
2021/12/04 17:37:17;;;;;;;;;;;5.30;99.90;;;;;;4955687;29;19927;-81
2021/12/04 17:39:45;;;;;;;;;;;5.30;99.90;;;;;;4966437;29;20034;-81
2021/12/04 17:42:12;;;;;;;;;;;5.30;99.90;;;;;;4965444;29;19927;-81
2021/12/04 17:44:39;;;;;;;;;;;5.30;99.90;;;;;;4972544;29;19958;-80
2021/12/04 17:47:05;;;;;;;;;;;5.30;99.90;;;;;;4960152;29;20021;-80
2021/12/04 17:49:32;;;;;;;;;;;5.30;99.90;;;;;;4966178;29;19957;-81
2021/12/04 17:51:59;;;;;;;;;;;5.30;99.90;;;;;;4970657;29;19926;-81
2021/12/04 17:54:26;;;;;;;;;;;5.20;99.90;;;;;;4971244;29;19930;-81
2021/12/04 17:56:54;;;;;;;;;;;5.10;99.90;;;;;;4974504;29;19926;-81
2021/12/04 17:59:23;;;;;;;;;;;5.10;99.90;;;;;;4972455;29;19926;-82
2021/12/04 18:01:52;;;;;;;;;;;5.10;99.90;;;;;;4964212;29;19926;-81
2021/12/04 18:04:25;;;;;;;;;;;5.00;99.90;;;;;;4969772;29;19990;-81
2021/12/04 18:06:51;;;;;;;;;;;4.90;99.90;;;;;;4957602;29;19954;-81
2021/12/04 18:09:19;;;;;;;;;;;4.90;99.90;;;;;;4961593;29;19989;-80
2021/12/04 18:11:48;;;;;;;;;;;4.80;99.90;;;;;;4973865;29;19957;-82
2021/12/04 18:14:19;;;;;;;;;;;4.80;99.90;;;;;;4956124;29;19926;-80
2021/12/04 18:16:49;;;;;;;;;;;4.80;99.90;;;;;;4974270;29;20013;-80
2021/12/04 18:19:18;;;;;;;;;;;4.70;99.90;;;;;;4976535;29;19994;-80
2021/12/04 18:21:51;;;;;;;;;;;4.60;99.90;;;;;;4979621;29;19926;-80
2021/12/04 18:24:19;;;;;;;;;;;4.60;99.90;;;;;;4981048;28;19922;-81
2021/12/04 18:26:45;;;;;;;;;;;4.60;99.90;;;;;;4982032;28;20456;-81
2021/12/04 18:29:12;;;;;;;;;;;4.60;99.90;;;;;;4980135;28;19986;-80
2021/12/04 18:31:42;;;;;;;;;;;4.70;99.90;;;;;;4980896;28;19977;-81
2021/12/04 18:34:09;;;;;;;;;;;4.70;99.90;;;;;;5454717;23;19957;-80
2021/12/04 18:36:42;;;;;;;;;;;4.70;99.90;;;;;;4985903;28;19926;-80
2021/12/04 18:39:11;;;;;;;;;;;4.70;99.90;;;;;;4982673;28;19938;-80
2021/12/04 18:41:38;;;;;;;;;;;4.70;99.90;;;;;;4981835;28;19938;-80
2021/12/04 18:44:07;;;;;;;;;;;4.90;99.90;;;;;;4982206;28;19917;-81
2021/12/04 18:46:34;;;;;;;;;;;4.90;99.90;;;;;;4985122;28;19932;-79
2021/12/04 18:49:22;;;;;;;;;;;4.90;99.90;;;;;;4994107;28;19934;-80
2021/12/04 18:52:04;;;;;;;;;;;4.90;99.90;;;;;;4960669;29;19918;-80
2021/12/04 18:54:31;;;;;;;;;;;4.90;99.90;;;;;;4979812;29;19926;-81
2021/12/04 18:56:59;;;;;;;;;;;4.90;99.90;;;;;;4978327;28;19937;-80
2021/12/04 18:59:27;;;;;;;;;;;4.90;99.90;;;;;;4978695;28;19938;-80
2021/12/04 19:01:58;;;;;;;;;;;4.90;99.90;;;;;;4977093;28;19928;-80
2021/12/04 19:04:27;;;;;;;;;;;4.90;99.90;;;;;;4977978;28;19926;-80
2021/12/04 19:06:54;;;;;;;;;;;4.90;99.90;;;;;;4982975;28;19926;-81
2021/12/04 19:09:21;;;;;;;;;;;4.90;99.90;;;;;;4988993;28;19950;-81
2021/12/04 19:11:49;;;;;;;;;;;4.80;99.90;;;;;;4981485;28;19926;-80
2021/12/04 19:14:16;;;;;;;;;;;4.70;99.90;;;;;;4978205;28;19933;-80
2021/12/04 19:16:43;;;;;;;;;;;4.70;99.90;;;;;;4975865;28;19926;-81
2021/12/04 19:19:10;;;;;;;;;;;4.60;99.90;;;;;;4989385;28;19931;-80
2021/12/04 19:21:39;;;;;;;;;;;4.60;99.90;;;;;;4972971;28;19959;-80
2021/12/04 19:24:07;;;;;;;;;;;4.50;99.90;;;;;;4968379;28;19926;-80
2021/12/04 19:26:34;;;;;;;;;;;4.50;99.90;;;;;;4975345;28;20383;-80
2021/12/04 19:29:03;;;;;;;;;;;4.50;99.90;;;;;;4987144;28;19949;-80
2021/12/04 19:31:36;;;;;;;;;;;4.40;99.90;;;;;;4978007;28;20020;-81